sensor_id;sensor_type;location;lat;lon;timestamp;pressure;altitude;pressure_sealevel;temperature;humidity
45255;BME280;30989;52.078;21.014;2022-12-10T00:01:09;163539.44;;;-0.80;100.00
45255;BME280;30989;52.078;21.014;2022-12-10T00:03:35;163528.78;;;-0.84;100.00
45255;BME280;30989;52.078;21.014;2022-12-10T00:06:02;163534.13;;;-0.82;100.00
45255;BME280;30989;52.078;21.014;2022-12-10T00:08:28;163535.44;;;-0.82;100.00
45255;BME280;30989;52.078;21.014;2022-12-10T00:10:54;163535.44;;;-0.82;100.00
45255;BME280;30989;52.078;21.014;2022-12-10T00:13:19;163531.47;;;-0.83;100.00
45255;BME280;30989;52.078;21.014;2022-12-10T00:15:45;163542.09;;;-0.79;100.00
45255;BME280;30989;52.078;21.014;2022-12-10T00:18:10;163542.09;;;-0.79;100.00
45255;BME280;30989;52.078;21.014;2022-12-10T00:20:37;163539.44;;;-0.80;100.00
45255;BME280;30989;52.078;21.014;2022-12-10T00:23:02;163539.44;;;-0.80;100.00
45255;BME280;30989;52.078;21.014;2022-12-10T00:25:28;163538.09;;;-0.81;100.00
45255;BME280;30989;52.078;21.014;2022-12-10T00:27:54;163539.44;;;-0.80;100.00
45255;BME280;30989;52.078;21.014;2022-12-10T00:30:19;163542.09;;;-0.79;100.00
45255;BME280;30989;52.078;21.014;2022-12-10T00:32:45;163536.78;;;-0.81;100.00
45255;BME280;30989;52.078;21.014;2022-12-10T00:35:10;163526.16;;;-0.85;100.00
45255;BME280;30989;52.078;21.014;2022-12-10T00:37:36;163527.47;;;-0.85;100.00
45255;BME280;30989;52.078;21.014;2022-12-10T00:40:01;163532.78;;;-0.83;100.00
45255;BME280;30989;52.078;21.014;2022-12-10T00:42:27;163531.47;;;-0.83;100.00
45255;BME280;30989;52.078;21.014;2022-12-10T00:44:52;163535.44;;;-0.82;100.00
45255;BME280;30989;52.078;21.014;2022-12-10T00:47:18;163539.44;;;-0.80;100.00
45255;BME280;30989;52.078;21.014;2022-12-10T00:49:43;163528.78;;;-0.84;100.00
45255;BME280;30989;52.078;21.014;2022-12-10T00:52:08;163531.47;;;-0.83;100.00
45255;BME280;30989;52.078;21.014;2022-12-10T00:54:34;163527.47;;;-0.85;100.00
45255;BME280;30989;52.078;21.014;2022-12-10T00:56:59;163535.44;;;-0.82;100.00
45255;BME280;30989;52.078;21.014;2022-12-10T00:59:25;163535.44;;;-0.82;100.00
45255;BME280;30989;52.078;21.014;2022-12-10T01:01:50;163536.78;;;-0.81;100.00
45255;BME280;30989;52.078;21.014;2022-12-10T01:04:19;163539.44;;;-0.80;100.00
45255;BME280;30989;52.078;21.014;2022-12-10T01:06:49;163539.44;;;-0.80;100.00
45255;BME280;30989;52.078;21.014;2022-12-10T01:09:18;163544.75;;;-0.78;100.00
45255;BME280;30989;52.078;21.014;2022-12-10T01:11:46;163542.09;;;-0.79;100.00
45255;BME280;30989;52.078;21.014;2022-12-10T01:14:15;163542.09;;;-0.79;100.00
45255;BME280;30989;52.078;21.014;2022-12-10T01:16:43;163540.75;;;-0.80;100.00
45255;BME280;30989;52.078;21.014;2022-12-10T01:19:09;163538.09;;;-0.81;100.00
45255;BME280;30989;52.078;21.014;2022-12-10T01:21:35;163523.47;;;-0.86;100.00
45255;BME280;30989;52.078;21.014;2022-12-10T01:24:01;163528.78;;;-0.84;100.00
45255;BME280;30989;52.078;21.014;2022-12-10T01:26:30;163532.78;;;-0.83;100.00
45255;BME280;30989;52.078;21.014;2022-12-10T01:28:56;163523.47;;;-0.86;100.00
45255;BME280;30989;52.078;21.014;2022-12-10T01:31:24;163534.13;;;-0.82;100.00
45255;BME280;30989;52.078;21.014;2022-12-10T01:33:51;163504.88;;;-0.93;100.00
45255;BME280;30989;52.078;21.014;2022-12-10T01:36:22;163534.13;;;-0.82;100.00
45255;BME280;30989;52.078;21.014;2022-12-10T01:38:48;163534.13;;;-0.82;100.00
45255;BME280;30989;52.078;21.014;2022-12-10T01:41:18;163528.78;;;-0.84;100.00
45255;BME280;30989;52.078;21.014;2022-12-10T01:43:54;163524.81;;;-0.86;100.00
45255;BME280;30989;52.078;21.014;2022-12-10T01:46:21;163518.16;;;-0.88;100.00
45255;BME280;30989;52.078;21.014;2022-12-10T01:48:49;163490.28;;;-0.99;100.00
45255;BME280;30989;52.078;21.014;2022-12-10T01:51:16;163519.50;;;-0.88;100.00
45255;BME280;30989;52.078;21.014;2022-12-10T01:53:43;163518.16;;;-0.88;100.00
45255;BME280;30989;52.078;21.014;2022-12-10T01:56:10;163528.78;;;-0.84;100.00
45255;BME280;30989;52.078;21.014;2022-12-10T01:58:37;163526.16;;;-0.85;100.00
45255;BME280;30989;52.078;21.014;2022-12-10T02:06:54;163552.72;;;-0.75;100.00
45255;BME280;30989;52.078;21.014;2022-12-10T02:09:35;163542.09;;;-0.79;100.00
45255;BME280;30989;52.078;21.014;2022-12-10T02:15:10;163552.72;;;-0.75;100.00
45255;BME280;30989;52.078;21.014;2022-12-10T02:22:46;163547.41;;;-0.77;100.00
45255;BME280;30989;52.078;21.014;2022-12-10T02:25:15;163547.41;;;-0.77;100.00
45255;BME280;30989;52.078;21.014;2022-12-10T02:30:11;163558.03;;;-0.73;100.00
45255;BME280;30989;52.078;21.014;2022-12-10T02:32:38;163559.38;;;-0.73;100.00
45255;BME280;30989;52.078;21.014;2022-12-10T02:35:13;163566.00;;;-0.70;100.00
45255;BME280;30989;52.078;21.014;2022-12-10T02:37:42;163564.69;;;-0.71;100.00
45255;BME280;30989;52.078;21.014;2022-12-10T02:40:16;163564.69;;;-0.71;100.00
45255;BME280;30989;52.078;21.014;2022-12-10T02:42:50;163550.06;;;-0.76;100.00
45255;BME280;30989;52.078;21.014;2022-12-10T02:45:17;163547.41;;;-0.77;100.00
45255;BME280;30989;52.078;21.014;2022-12-10T02:47:43;163555.38;;;-0.74;100.00
45255;BME280;30989;52.078;21.014;2022-12-10T02:50:12;163556.69;;;-0.74;100.00
45255;BME280;30989;52.078;21.014;2022-12-10T02:52:40;163555.38;;;-0.74;100.00
45255;BME280;30989;52.078;21.014;2022-12-10T02:55:06;163558.03;;;-0.73;100.00
45255;BME280;30989;52.078;21.014;2022-12-10T03:00:21;163566.00;;;-0.70;100.00
45255;BME280;30989;52.078;21.014;2022-12-10T03:06:00;163558.03;;;-0.73;100.00
45255;BME280;30989;52.078;21.014;2022-12-10T03:11:14;163555.38;;;-0.74;100.00
45255;BME280;30989;52.078;21.014;2022-12-10T03:14:00;163550.06;;;-0.76;100.00
45255;BME280;30989;52.078;21.014;2022-12-10T03:16:39;163542.09;;;-0.79;100.00
45255;BME280;30989;52.078;21.014;2022-12-10T03:19:11;163534.13;;;-0.82;100.00
45255;BME280;30989;52.078;21.014;2022-12-10T03:21:38;163543.41;;;-0.79;100.00
45255;BME280;30989;52.078;21.014;2022-12-10T03:24:08;163547.41;;;-0.77;100.00
45255;BME280;30989;52.078;21.014;2022-12-10T03:26:36;163519.50;;;-0.88;100.00
45255;BME280;30989;52.078;21.014;2022-12-10T03:29:06;163531.47;;;-0.83;100.00
45255;BME280;30989;52.078;21.014;2022-12-10T03:31:34;163539.44;;;-0.80;100.00
45255;BME280;30989;52.078;21.014;2022-12-10T03:34:00;163539.44;;;-0.80;100.00
45255;BME280;30989;52.078;21.014;2022-12-10T03:36:27;163539.44;;;-0.80;100.00
45255;BME280;30989;52.078;21.014;2022-12-10T03:38:54;163528.78;;;-0.84;100.00
45255;BME280;30989;52.078;21.014;2022-12-10T03:41:19;163531.47;;;-0.83;100.00
45255;BME280;30989;52.078;21.014;2022-12-10T03:43:56;163514.19;;;-0.90;100.00
45255;BME280;30989;52.078;21.014;2022-12-10T03:46:23;163527.47;;;-0.85;100.00
45255;BME280;30989;52.078;21.014;2022-12-10T03:48:50;163528.78;;;-0.84;100.00
45255;BME280;30989;52.078;21.014;2022-12-10T03:51:15;163523.47;;;-0.86;100.00
45255;BME280;30989;52.078;21.014;2022-12-10T03:53:41;163510.19;;;-0.91;100.00
45255;BME280;30989;52.078;21.014;2022-12-10T03:56:06;163508.88;;;-0.92;100.00
45255;BME280;30989;52.078;21.014;2022-12-10T03:58:32;163518.16;;;-0.88;100.00
45255;BME280;30989;52.078;21.014;2022-12-10T04:00:57;163518.16;;;-0.88;100.00
45255;BME280;30989;52.078;21.014;2022-12-10T04:03:23;163518.16;;;-0.88;100.00
45255;BME280;30989;52.078;21.014;2022-12-10T04:05:48;163502.22;;;-0.94;100.00
45255;BME280;30989;52.078;21.014;2022-12-10T04:08:14;163514.19;;;-0.90;100.00
45255;BME280;30989;52.078;21.014;2022-12-10T04:10:40;163516.84;;;-0.89;100.00
45255;BME280;30989;52.078;21.014;2022-12-10T04:13:05;163508.88;;;-0.92;100.00
45255;BME280;30989;52.078;21.014;2022-12-10T04:15:49;163499.56;;;-0.95;100.00
45255;BME280;30989;52.078;21.014;2022-12-10T04:18:33;163503.56;;;-0.94;100.00
45255;BME280;30989;52.078;21.014;2022-12-10T04:20:58;163502.22;;;-0.94;100.00
45255;BME280;30989;52.078;21.014;2022-12-10T04:23:42;163507.53;;;-0.92;100.00
45255;BME280;30989;52.078;21.014;2022-12-10T04:26:26;163519.50;;;-0.88;100.00
45255;BME280;30989;52.078;21.014;2022-12-10T04:29:10;163523.47;;;-0.86;100.00
45255;BME280;30989;52.078;21.014;2022-12-10T04:31:35;163520.81;;;-0.87;100.00
45255;BME280;30989;52.078;21.014;2022-12-10T04:34:01;163518.16;;;-0.88;100.00
45255;BME280;30989;52.078;21.014;2022-12-10T04:36:26;163502.22;;;-0.94;100.00
45255;BME280;30989;52.078;21.014;2022-12-10T04:38:52;163510.19;;;-0.91;100.00
45255;BME280;30989;52.078;21.014;2022-12-10T04:41:17;163510.19;;;-0.91;100.00
45255;BME280;30989;52.078;21.014;2022-12-10T04:43:43;163496.91;;;-0.97;100.00
45255;BME280;30989;52.078;21.014;2022-12-10T04:46:09;163499.56;;;-0.95;100.00
45255;BME280;30989;52.078;21.014;2022-12-10T04:48:34;163491.59;;;-0.99;100.00
45255;BME280;30989;52.078;21.014;2022-12-10T04:51:00;163504.88;;;-0.93;100.00
45255;BME280;30989;52.078;21.014;2022-12-10T04:53:25;163491.59;;;-0.99;100.00
45255;BME280;30989;52.078;21.014;2022-12-10T04:55:51;163488.94;;;-1.00;100.00
45255;BME280;30989;52.078;21.014;2022-12-10T04:58:17;163503.56;;;-0.94;100.00
45255;BME280;30989;52.078;21.014;2022-12-10T05:00:42;163504.88;;;-0.93;100.00
45255;BME280;30989;52.078;21.014;2022-12-10T05:03:08;163504.88;;;-0.93;100.00
45255;BME280;30989;52.078;21.014;2022-12-10T05:05:34;163502.22;;;-0.94;100.00
45255;BME280;30989;52.078;21.014;2022-12-10T05:08:00;163502.22;;;-0.94;100.00
45255;BME280;30989;52.078;21.014;2022-12-10T05:10:25;163502.22;;;-0.94;100.00
45255;BME280;30989;52.078;21.014;2022-12-10T05:12:52;163491.59;;;-0.99;100.00
45255;BME280;30989;52.078;21.014;2022-12-10T05:15:17;163502.22;;;-0.94;100.00
45255;BME280;30989;52.078;21.014;2022-12-10T05:17:43;163511.53;;;-0.91;100.00
45255;BME280;30989;52.078;21.014;2022-12-10T05:20:09;163515.50;;;-0.89;100.00
45255;BME280;30989;52.078;21.014;2022-12-10T05:22:35;163518.16;;;-0.88;100.00
45255;BME280;30989;52.078;21.014;2022-12-10T05:25:19;163512.84;;;-0.90;100.00
45255;BME280;30989;52.078;21.014;2022-12-10T05:27:44;163518.16;;;-0.88;100.00
45255;BME280;30989;52.078;21.014;2022-12-10T05:30:10;163515.50;;;-0.89;100.00
45255;BME280;30989;52.078;21.014;2022-12-10T05:32:36;163508.88;;;-0.92;100.00
45255;BME280;30989;52.078;21.014;2022-12-10T05:35:02;163512.84;;;-0.90;100.00
45255;BME280;30989;52.078;21.014;2022-12-10T05:37:28;163507.53;;;-0.92;100.00
45255;BME280;30989;52.078;21.014;2022-12-10T05:39:54;163510.19;;;-0.91;100.00
45255;BME280;30989;52.078;21.014;2022-12-10T05:42:19;163518.16;;;-0.88;100.00
45255;BME280;30989;52.078;21.014;2022-12-10T05:44:45;163502.22;;;-0.94;100.00
45255;BME280;30989;52.078;21.014;2022-12-10T05:47:10;163494.25;;;-0.98;100.00
45255;BME280;30989;52.078;21.014;2022-12-10T05:49:36;163500.91;;;-0.95;100.00
45255;BME280;30989;52.078;21.014;2022-12-10T05:52:02;163508.88;;;-0.92;100.00
45255;BME280;30989;52.078;21.014;2022-12-10T05:54:27;163503.56;;;-0.94;100.00
45255;BME280;30989;52.078;21.014;2022-12-10T05:56:52;163508.88;;;-0.92;100.00
45255;BME280;30989;52.078;21.014;2022-12-10T05:59:19;163511.53;;;-0.91;100.00
45255;BME280;30989;52.078;21.014;2022-12-10T06:01:45;163510.19;;;-0.91;100.00
45255;BME280;30989;52.078;21.014;2022-12-10T06:04:11;163511.53;;;-0.91;100.00
45255;BME280;30989;52.078;21.014;2022-12-10T06:06:38;163508.88;;;-0.92;100.00
45255;BME280;30989;52.078;21.014;2022-12-10T06:09:06;163510.19;;;-0.91;100.00
45255;BME280;30989;52.078;21.014;2022-12-10T06:11:32;163511.53;;;-0.91;100.00
45255;BME280;30989;52.078;21.014;2022-12-10T06:13:58;163519.50;;;-0.88;100.00
45255;BME280;30989;52.078;21.014;2022-12-10T06:16:26;163522.16;;;-0.87;100.00
45255;BME280;30989;52.078;21.014;2022-12-10T06:18:52;163531.47;;;-0.83;100.00
45255;BME280;30989;52.078;21.014;2022-12-10T06:21:18;163522.16;;;-0.87;100.00
45255;BME280;30989;52.078;21.014;2022-12-10T06:23:44;163520.81;;;-0.87;100.00
45255;BME280;30989;52.078;21.014;2022-12-10T06:26:16;163516.84;;;-0.89;100.00
45255;BME280;30989;52.078;21.014;2022-12-10T06:28:44;163514.19;;;-0.90;100.00
45255;BME280;30989;52.078;21.014;2022-12-10T06:31:10;163515.50;;;-0.89;100.00
45255;BME280;30989;52.078;21.014;2022-12-10T06:33:36;163510.19;;;-0.91;100.00
45255;BME280;30989;52.078;21.014;2022-12-10T06:36:06;163520.81;;;-0.87;100.00
45255;BME280;30989;52.078;21.014;2022-12-10T06:38:33;163515.50;;;-0.89;100.00
45255;BME280;30989;52.078;21.014;2022-12-10T06:40:59;163526.16;;;-0.85;100.00
45255;BME280;30989;52.078;21.014;2022-12-10T06:43:29;163520.81;;;-0.87;100.00
45255;BME280;30989;52.078;21.014;2022-12-10T06:45:55;163523.47;;;-0.86;100.00
45255;BME280;30989;52.078;21.014;2022-12-10T06:48:21;163510.19;;;-0.91;100.00
45255;BME280;30989;52.078;21.014;2022-12-10T06:50:46;163515.50;;;-0.89;100.00
45255;BME280;30989;52.078;21.014;2022-12-10T06:53:11;163512.84;;;-0.90;100.00
45255;BME280;30989;52.078;21.014;2022-12-10T06:55:37;163510.19;;;-0.91;100.00
45255;BME280;30989;52.078;21.014;2022-12-10T06:58:05;163511.53;;;-0.91;100.00
45255;BME280;30989;52.078;21.014;2022-12-10T07:00:31;163516.84;;;-0.89;100.00
45255;BME280;30989;52.078;21.014;2022-12-10T07:02:57;163527.47;;;-0.85;100.00
45255;BME280;30989;52.078;21.014;2022-12-10T07:05:22;163524.81;;;-0.86;100.00
45255;BME280;30989;52.078;21.014;2022-12-10T07:07:50;163524.81;;;-0.86;100.00
45255;BME280;30989;52.078;21.014;2022-12-10T07:10:16;163536.78;;;-0.81;100.00
45255;BME280;30989;52.078;21.014;2022-12-10T07:12:41;163540.75;;;-0.80;100.00
45255;BME280;30989;52.078;21.014;2022-12-10T07:15:07;163536.78;;;-0.81;100.00
45255;BME280;30989;52.078;21.014;2022-12-10T07:17:33;163555.38;;;-0.74;100.00
45255;BME280;30989;52.078;21.014;2022-12-10T07:19:58;163552.72;;;-0.75;100.00
45255;BME280;30989;52.078;21.014;2022-12-10T07:22:24;163555.38;;;-0.74;100.00
45255;BME280;30989;52.078;21.014;2022-12-10T07:24:50;163548.72;;;-0.77;100.00
45255;BME280;30989;52.078;21.014;2022-12-10T07:27:15;163560.69;;;-0.72;100.00
45255;BME280;30989;52.078;21.014;2022-12-10T07:29:41;163567.34;;;-0.70;100.00
45255;BME280;30989;52.078;21.014;2022-12-10T07:32:06;163571.31;;;-0.68;100.00
45255;BME280;30989;52.078;21.014;2022-12-10T07:34:32;163568.66;;;-0.69;100.00
45255;BME280;30989;52.078;21.014;2022-12-10T07:36:57;163563.34;;;-0.71;100.00
45255;BME280;30989;52.078;21.014;2022-12-10T07:39:26;163566.00;;;-0.70;100.00
45255;BME280;30989;52.078;21.014;2022-12-10T07:41:53;163564.69;;;-0.71;100.00
45255;BME280;30989;52.078;21.014;2022-12-10T07:44:20;163571.31;;;-0.68;100.00
45255;BME280;30989;52.078;21.014;2022-12-10T07:46:47;163562.03;;;-0.72;100.00
45255;BME280;30989;52.078;21.014;2022-12-10T07:49:13;163568.66;;;-0.69;100.00
45255;BME280;30989;52.078;21.014;2022-12-10T07:51:39;163546.06;;;-0.78;100.00
45255;BME280;30989;52.078;21.014;2022-12-10T07:54:05;163551.38;;;-0.76;100.00
45255;BME280;30989;52.078;21.014;2022-12-10T07:56:30;163566.00;;;-0.70;100.00
45255;BME280;30989;52.078;21.014;2022-12-10T07:58:56;163571.31;;;-0.68;100.00
45255;BME280;30989;52.078;21.014;2022-12-10T08:01:26;163587.28;;;-0.62;100.00
45255;BME280;30989;52.078;21.014;2022-12-10T08:03:53;163584.63;;;-0.63;100.00
45255;BME280;30989;52.078;21.014;2022-12-10T08:06:21;163579.28;;;-0.65;100.00
45255;BME280;30989;52.078;21.014;2022-12-10T08:08:47;163595.25;;;-0.59;100.00
45255;BME280;30989;52.078;21.014;2022-12-10T08:11:14;163599.22;;;-0.57;100.00
45255;BME280;30989;52.078;21.014;2022-12-10T08:13:40;163592.59;;;-0.60;100.00
45255;BME280;30989;52.078;21.014;2022-12-10T08:16:17;163596.56;;;-0.58;100.00
45255;BME280;30989;52.078;21.014;2022-12-10T08:18:44;163608.53;;;-0.54;100.00
45255;BME280;30989;52.078;21.014;2022-12-10T08:21:12;163601.88;;;-0.56;100.00
45255;BME280;30989;52.078;21.014;2022-12-10T08:23:38;163603.22;;;-0.56;100.00
45255;BME280;30989;52.078;21.014;2022-12-10T08:26:05;163601.88;;;-0.56;100.00
45255;BME280;30989;52.078;21.014;2022-12-10T08:28:32;163599.22;;;-0.57;100.00
45255;BME280;30989;52.078;21.014;2022-12-10T08:30:58;163613.84;;;-0.52;100.00
45255;BME280;30989;52.078;21.014;2022-12-10T08:33:24;163617.84;;;-0.50;100.00
45255;BME280;30989;52.078;21.014;2022-12-10T08:35:49;163603.22;;;-0.56;100.00
45255;BME280;30989;52.078;21.014;2022-12-10T08:38:15;163620.50;;;-0.49;100.00
45255;BME280;30989;52.078;21.014;2022-12-10T08:40:41;163629.81;;;-0.46;100.00
45255;BME280;30989;52.078;21.014;2022-12-10T08:43:07;163616.50;;;-0.51;100.00
45255;BME280;30989;52.078;21.014;2022-12-10T08:45:32;163632.47;;;-0.45;100.00
45255;BME280;30989;52.078;21.014;2022-12-10T08:48:00;163640.44;;;-0.42;100.00
45255;BME280;30989;52.078;21.014;2022-12-10T08:50:26;163624.47;;;-0.48;100.00
45255;BME280;30989;52.078;21.014;2022-12-10T08:52:52;163635.13;;;-0.44;100.00
45255;BME280;30989;52.078;21.014;2022-12-10T08:55:17;163639.09;;;-0.42;100.00
45255;BME280;30989;52.078;21.014;2022-12-10T08:57:42;163655.06;;;-0.36;100.00
45255;BME280;30989;52.078;21.014;2022-12-10T09:00:08;163635.13;;;-0.44;100.00
45255;BME280;30989;52.078;21.014;2022-12-10T09:02:34;163661.72;;;-0.34;100.00
45255;BME280;30989;52.078;21.014;2022-12-10T09:05:00;163639.09;;;-0.42;100.00
45255;BME280;30989;52.078;21.014;2022-12-10T09:07:26;163656.38;;;-0.36;100.00
45255;BME280;30989;52.078;21.014;2022-12-10T09:09:52;163664.38;;;-0.33;100.00
45255;BME280;30989;52.078;21.014;2022-12-10T09:12:17;163664.38;;;-0.33;100.00
45255;BME280;30989;52.078;21.014;2022-12-10T09:14:43;163669.69;;;-0.30;100.00
45255;BME280;30989;52.078;21.014;2022-12-10T09:17:08;163672.34;;;-0.29;100.00
45255;BME280;30989;52.078;21.014;2022-12-10T09:19:34;163660.38;;;-0.34;100.00
45255;BME280;30989;52.078;21.014;2022-12-10T09:22:00;163682.97;;;-0.25;100.00
45255;BME280;30989;52.078;21.014;2022-12-10T09:24:26;163680.31;;;-0.26;100.00
45255;BME280;30989;52.078;21.014;2022-12-10T09:26:52;163682.97;;;-0.25;100.00
45255;BME280;30989;52.078;21.014;2022-12-10T09:29:19;163676.31;;;-0.28;100.00
45255;BME280;30989;52.078;21.014;2022-12-10T09:31:44;163680.31;;;-0.26;100.00
45255;BME280;30989;52.078;21.014;2022-12-10T09:34:10;163681.66;;;-0.26;100.00
45255;BME280;30989;52.078;21.014;2022-12-10T09:36:35;163678.97;;;-0.27;100.00
45255;BME280;30989;52.078;21.014;2022-12-10T09:39:01;163680.31;;;-0.26;100.00
45255;BME280;30989;52.078;21.014;2022-12-10T09:44:00;163686.97;;;-0.24;100.00
45255;BME280;30989;52.078;21.014;2022-12-10T09:51:37;163672.34;;;-0.29;100.00
45255;BME280;30989;52.078;21.014;2022-12-10T09:54:33;163682.97;;;-0.25;100.00
45255;BME280;30989;52.078;21.014;2022-12-10T09:57:03;163677.66;;;-0.27;100.00
45255;BME280;30989;52.078;21.014;2022-12-10T09:59:38;163675.00;;;-0.28;100.00
45255;BME280;30989;52.078;21.014;2022-12-10T10:04:48;163673.66;;;-0.29;100.00
45255;BME280;30989;52.078;21.014;2022-12-10T10:07:21;163672.34;;;-0.29;100.00
45255;BME280;30989;52.078;21.014;2022-12-10T10:09:50;163652.41;;;-0.37;100.00
45255;BME280;30989;52.078;21.014;2022-12-10T10:12:16;163680.31;;;-0.26;100.00
45255;BME280;30989;52.078;21.014;2022-12-10T10:14:43;163686.97;;;-0.24;100.00
45255;BME280;30989;52.078;21.014;2022-12-10T10:17:29;163689.63;;;-0.23;100.00
45255;BME280;30989;52.078;21.014;2022-12-10T10:19:57;163688.28;;;-0.23;100.00
45255;BME280;30989;52.078;21.014;2022-12-10T10:22:22;163688.28;;;-0.23;100.00
45255;BME280;30989;52.078;21.014;2022-12-10T10:24:48;163696.25;;;-0.20;100.00
45255;BME280;30989;52.078;21.014;2022-12-10T10:27:15;163702.91;;;-0.18;100.00
45255;BME280;30989;52.078;21.014;2022-12-10T10:29:45;163693.59;;;-0.21;100.00
45255;BME280;30989;52.078;21.014;2022-12-10T10:32:19;163722.84;;;-0.10;100.00
45255;BME280;30989;52.078;21.014;2022-12-10T10:34:46;163740.13;;;-0.04;100.00
45255;BME280;30989;52.078;21.014;2022-12-10T10:37:20;163740.13;;;-0.04;100.00
45255;BME280;30989;52.078;21.014;2022-12-10T10:39:48;163730.84;;;-0.07;100.00
45255;BME280;30989;52.078;21.014;2022-12-10T10:42:25;163741.47;;;-0.03;100.00
45255;BME280;30989;52.078;21.014;2022-12-10T10:44:52;163741.47;;;-0.03;100.00
45255;BME280;30989;52.078;21.014;2022-12-10T10:47:28;163744.13;;;-0.02;100.00
45255;BME280;30989;52.078;21.014;2022-12-10T10:49:54;163740.13;;;-0.04;100.00
45255;BME280;30989;52.078;21.014;2022-12-10T10:52:20;163730.84;;;-0.07;100.00
45255;BME280;30989;52.078;21.014;2022-12-10T10:54:46;163745.47;;;-0.02;100.00
45255;BME280;30989;52.078;21.014;2022-12-10T10:57:29;163754.81;;;0.02;100.00
45255;BME280;30989;52.078;21.014;2022-12-10T11:00:27;163754.81;;;0.02;100.00
45255;BME280;30989;52.078;21.014;2022-12-10T11:02:53;163733.50;;;-0.06;100.00
45255;BME280;30989;52.078;21.014;2022-12-10T11:05:26;163746.78;;;-0.01;100.00
45255;BME280;30989;52.078;21.014;2022-12-10T11:08:05;163742.81;;;-0.03;100.00
45255;BME280;30989;52.078;21.014;2022-12-10T11:10:47;163742.81;;;-0.03;100.00
45255;BME280;30989;52.078;21.014;2022-12-10T11:13:25;163716.22;;;-0.13;100.00
45255;BME280;30989;52.078;21.014;2022-12-10T11:23:41;163754.81;;;0.02;100.00
45255;BME280;30989;52.078;21.014;2022-12-10T11:27:10;163762.78;;;0.05;100.00
45255;BME280;30989;52.078;21.014;2022-12-10T11:32:25;163777.41;;;0.11;100.00
45255;BME280;30989;52.078;21.014;2022-12-10T11:37:33;163773.44;;;0.09;100.00
45255;BME280;30989;52.078;21.014;2022-12-10T11:40:24;163770.78;;;0.08;100.00
45255;BME280;30989;52.078;21.014;2022-12-10T11:43:00;163778.75;;;0.11;100.00
45255;BME280;30989;52.078;21.014;2022-12-10T11:45:59;163781.41;;;0.12;100.00
45255;BME280;30989;52.078;21.014;2022-12-10T11:51:03;163778.75;;;0.11;100.00
45255;BME280;30989;52.078;21.014;2022-12-10T11:59:20;163809.34;;;0.23;100.00
45255;BME280;30989;52.078;21.014;2022-12-10T12:07:05;163813.34;;;0.24;100.00
45255;BME280;30989;52.078;21.014;2022-12-10T12:15:00;163812.00;;;0.24;100.00
45255;BME280;30989;52.078;21.014;2022-12-10T12:17:31;163819.97;;;0.27;100.00
45255;BME280;30989;52.078;21.014;2022-12-10T12:20:11;163819.97;;;0.27;100.00
45255;BME280;30989;52.078;21.014;2022-12-10T12:22:44;163810.66;;;0.23;100.00
45255;BME280;30989;52.078;21.014;2022-12-10T12:25:34;163802.69;;;0.20;100.00
45255;BME280;30989;52.078;21.014;2022-12-10T12:30:45;163768.13;;;0.07;100.00
45255;BME280;30989;52.078;21.014;2022-12-10T12:36:07;163765.47;;;0.06;100.00
45255;BME280;30989;52.078;21.014;2022-12-10T12:38:46;163770.78;;;0.08;100.00
45255;BME280;30989;52.078;21.014;2022-12-10T12:41:35;163760.13;;;0.04;100.00
45255;BME280;30989;52.078;21.014;2022-12-10T12:46:47;163744.13;;;-0.02;100.00
45255;BME280;30989;52.078;21.014;2022-12-10T12:49:28;163754.81;;;0.02;100.00
45255;BME280;30989;52.078;21.014;2022-12-10T12:52:02;163760.13;;;0.04;100.00
45255;BME280;30989;52.078;21.014;2022-12-10T12:54:32;163762.78;;;0.05;100.00
45255;BME280;30989;52.078;21.014;2022-12-10T12:57:06;163749.50;;;0.00;100.00
45255;BME280;30989;52.078;21.014;2022-12-10T13:00:03;163760.13;;;0.04;100.00
45255;BME280;30989;52.078;21.014;2022-12-10T13:05:36;163765.47;;;0.06;100.00
45255;BME280;30989;52.078;21.014;2022-12-10T13:08:25;163765.47;;;0.06;100.00
45255;BME280;30989;52.078;21.014;2022-12-10T13:13:42;163754.81;;;0.02;100.00
45255;BME280;30989;52.078;21.014;2022-12-10T13:29:28;163733.50;;;-0.06;100.00
45255;BME280;30989;52.078;21.014;2022-12-10T13:32:04;163752.16;;;0.01;100.00
45255;BME280;30989;52.078;21.014;2022-12-10T13:34:33;163745.47;;;-0.02;100.00
45255;BME280;30989;52.078;21.014;2022-12-10T13:37:27;163741.47;;;-0.03;100.00
45255;BME280;30989;52.078;21.014;2022-12-10T13:40:13;163724.19;;;-0.10;100.00
45255;BME280;30989;52.078;21.014;2022-12-10T13:42:43;163717.53;;;-0.12;100.00
45255;BME280;30989;52.078;21.014;2022-12-10T13:45:31;163704.25;;;-0.17;100.00
45255;BME280;30989;52.078;21.014;2022-12-10T13:48:18;163724.19;;;-0.10;100.00
45255;BME280;30989;52.078;21.014;2022-12-10T13:59:28;163706.91;;;-0.16;100.00
45255;BME280;30989;52.078;21.014;2022-12-10T14:05:07;163696.25;;;-0.20;100.00
45255;BME280;30989;52.078;21.014;2022-12-10T14:07:39;163706.91;;;-0.16;100.00
45255;BME280;30989;52.078;21.014;2022-12-10T14:10:14;163704.25;;;-0.17;100.00
45255;BME280;30989;52.078;21.014;2022-12-10T14:12:41;163689.63;;;-0.23;100.00
45255;BME280;30989;52.078;21.014;2022-12-10T14:15:16;163702.91;;;-0.18;100.00
45255;BME280;30989;52.078;21.014;2022-12-10T14:17:44;163697.59;;;-0.20;100.00
45255;BME280;30989;52.078;21.014;2022-12-10T14:20:18;163708.22;;;-0.16;100.00
45255;BME280;30989;52.078;21.014;2022-12-10T14:22:47;163701.59;;;-0.18;100.00
45255;BME280;30989;52.078;21.014;2022-12-10T14:25:16;163705.56;;;-0.17;100.00
45255;BME280;30989;52.078;21.014;2022-12-10T14:27:44;163706.91;;;-0.16;100.00